This is the latest recevied weather packets stored in our database for station/object GW1597. If no packets are shown the sender has not sent any weather packets the latest 10 day(s).
| Time | Temp. | Humidity | Pressure | Rain* | Wind** | Luminosity | Snow |
|---|---|---|---|---|---|---|---|
| 1777783725 | 3.89° C | 92% | 991.5 hPa | 0 mm | - | - | - |
| 1777783362 | 3.89° C | 92% | 991.1 hPa | 0 mm | - | - | - |
| 1777782283 | 4.44° C | 91% | 991.1 hPa | 0 mm | - | - | - |
| 1777781903 | 4.44° C | 91% | 991.1 hPa | 0 mm | - | - | - |
| 1777781183 | 5° C | 90% | 990.8 hPa | 0 mm | - | - | - |
| 1777780492 | 5.56° C | 88% | 990.8 hPa | 0 mm | - | - | - |
| 1777779736 | 5° C | 89% | 990.8 hPa | 0 mm | - | - | - |
| 1777777224 | 5.56° C | 88% | 990.8 hPa | 0 mm | - | - | - |
| 1777775778 | 6.11° C | 86% | 990.5 hPa | 0 mm | - | - | - |
| 1777771814 | 7.78° C | 80% | 990.1 hPa | 0 mm | - | - | - |
| 1777769323 | 8.89° C | 74% | 989.8 hPa | 0 mm | - | - | - |
| 1777767495 | 10° C | 71% | 989.5 hPa | 0 mm | - | - | - |
| 1777765721 | 11.67° C | 61% | 989.1 hPa | 0 mm | - | - | - |
| 1777763532 | 12.78° C | 49% | 988.8 hPa | 0 mm | - | - | - |
| 1777758851 | 13.33° C | 46% | 988.8 hPa | 0 mm | - | - | - |
| 1777755634 | 13.33° C | 46% | 988.4 hPa | 0 mm | - | - | - |
| 1777751654 | 14.44° C | 46% | 988.4 hPa | 0 mm | - | - | - |
| 1777750969 | 14.44° C | 47% | 988.8 hPa | 0 mm | - | - | - |
| 1777746280 | 12.22° C | 50% | 989.5 hPa | 0 mm | - | - | - |
| 1777745574 | 12.78° C | 50% | 989.5 hPa | 0 mm | - | - | - |
| 1777737984 | 12.78° C | 49% | 990.1 hPa | 0 mm | - | - | - |
| 1777735839 | 12.22° C | 52% | 989.8 hPa | 0 mm | - | - | - |
| 1777735453 | 12.22° C | 52% | 989.8 hPa | 0 mm | - | - | - |
| 1777734042 | 12.22° C | 57% | 989.8 hPa | 0 mm | - | - | - |
| 1777732610 | 12.22° C | 61% | 990.1 hPa | 0 mm | - | - | - |
* Rain since midnight (hover to see other rain measurements)
** Current wind speed in m/s (hover to see current wind gust speed)